createdAt,value
2022-10-23T00:01:35.825Z,13.13
2022-10-23T00:03:37.856Z,15.40
2022-10-23T00:05:41.582Z,13.85
2022-10-23T00:07:43.760Z,17.38
2022-10-23T00:09:45.982Z,13.27
2022-10-23T00:11:50.315Z,15.65
2022-10-23T00:13:55.645Z,14.52
2022-10-23T00:15:57.677Z,14.15
2022-10-23T00:18:00.283Z,17.33
2022-10-23T00:20:02.354Z,12.15
2022-10-23T00:22:05.988Z,15.52
2022-10-23T00:26:15.902Z,13.32
2022-10-23T00:28:18.247Z,15.30
2022-10-23T00:30:20.506Z,17.20
2022-10-23T00:34:24.687Z,13.77
2022-10-23T00:36:26.823Z,11.32
2022-10-23T00:38:29.055Z,14.73
2022-10-23T00:40:31.750Z,16.20
2022-10-23T00:42:33.758Z,16.33
2022-10-23T00:44:35.900Z,12.00
2022-10-23T00:46:40.423Z,14.40
2022-10-23T00:48:42.472Z,13.23
2022-10-23T00:50:46.487Z,11.93
2022-10-23T00:52:52.538Z,15.20
2022-10-23T00:54:56.218Z,14.82
2022-10-23T00:57:01.506Z,17.45
2022-10-23T00:59:04.292Z,13.95
2022-10-23T01:01:22.265Z,14.25
2022-10-23T01:03:28.769Z,14.20
2022-10-23T01:05:41.579Z,14.65
2022-10-23T01:07:46.324Z,16.83
2022-10-23T01:10:03.682Z,18.58
2022-10-23T01:12:24.576Z,14.30
2022-10-23T01:14:47.643Z,14.32
2022-10-23T01:17:30.462Z,18.92
2022-10-23T01:20:07.172Z,20.10
2022-10-23T01:22:28.027Z,15.75
2022-10-23T01:24:56.952Z,16.95
2022-10-23T01:27:17.811Z,20.55
2022-10-23T01:29:37.047Z,23.38
2022-10-23T01:31:59.117Z,21.08
2022-10-23T01:34:10.976Z,15.05
2022-10-23T01:36:20.542Z,18.63
2022-10-23T01:38:46.368Z,22.05
2022-10-23T01:41:03.194Z,20.88
2022-10-23T01:43:11.168Z,20.95
2022-10-23T01:45:20.647Z,20.83
2022-10-23T01:47:27.566Z,21.60
2022-10-23T01:49:39.327Z,20.70
2022-10-23T01:51:45.374Z,19.38
2022-10-23T01:53:51.311Z,18.58
2022-10-23T01:55:55.626Z,17.70
2022-10-23T01:58:02.767Z,17.65
2022-10-23T02:00:14.566Z,19.85
2022-10-23T02:02:29.070Z,19.40
2022-10-23T02:04:36.528Z,18.55
2022-10-23T02:06:38.825Z,21.00
2022-10-23T02:10:54.826Z,20.10
2022-10-23T02:13:17.774Z,21.25
2022-10-23T02:15:30.103Z,24.77
2022-10-23T02:17:44.170Z,17.77
2022-10-23T02:19:49.077Z,22.02
2022-10-23T02:22:23.273Z,22.30
2022-10-23T02:24:35.854Z,21.45
2022-10-23T02:26:50.124Z,22.25
2022-10-23T02:29:01.882Z,24.38
2022-10-23T02:31:10.433Z,21.50
2022-10-23T02:33:14.583Z,23.95
2022-10-23T02:35:18.975Z,21.38
2022-10-23T02:39:29.755Z,24.48
2022-10-23T02:41:58.269Z,25.20
2022-10-23T02:44:45.809Z,25.75
2022-10-23T02:47:24.749Z,25.63
2022-10-23T02:49:37.528Z,26.63
2022-10-23T02:51:48.498Z,27.05
2022-10-23T02:54:14.992Z,31.15
2022-10-23T02:56:23.050Z,29.77
2022-10-23T02:58:27.699Z,23.60
2022-10-23T03:00:32.817Z,24.67
2022-10-23T03:02:59.876Z,32.78
2022-10-23T03:05:08.077Z,22.95
2022-10-23T03:07:14.475Z,25.73
2022-10-23T03:09:18.841Z,25.50
2022-10-23T03:11:21.108Z,28.83
2022-10-23T03:13:24.741Z,26.42
2022-10-23T03:15:27.772Z,26.63
2022-10-23T03:17:30.377Z,26.67
2022-10-23T03:19:34.769Z,30.45
2022-10-23T03:21:39.134Z,30.60
2022-10-23T03:23:43.547Z,28.85
2022-10-23T03:25:50.491Z,28.35
2022-10-23T03:28:06.038Z,30.48
2022-10-23T03:30:10.931Z,27.23
2022-10-23T03:32:14.931Z,31.10
2022-10-23T03:34:17.289Z,27.42
2022-10-23T03:36:19.331Z,29.77
2022-10-23T03:38:21.585Z,29.10
2022-10-23T03:40:23.759Z,27.83
2022-10-23T03:42:25.933Z,31.80
2022-10-23T03:44:27.950Z,32.70
2022-10-23T03:46:32.182Z,30.90
2022-10-23T03:48:34.199Z,30.30
2022-10-23T03:50:36.463Z,25.15
2022-10-23T03:52:40.816Z,30.05
2022-10-23T03:54:43.177Z,27.88
2022-10-23T03:56:45.874Z,31.38
2022-10-23T03:58:48.306Z,30.75
2022-10-23T04:00:50.746Z,30.20
2022-10-23T04:02:52.926Z,36.15
2022-10-23T04:04:55.719Z,33.72
2022-10-23T04:06:58.346Z,28.95
2022-10-23T04:09:01.105Z,30.13
2022-10-23T04:11:03.517Z,26.13
2022-10-23T04:13:11.403Z,30.65
2022-10-23T04:15:13.660Z,28.90
2022-10-23T04:17:18.942Z,29.45
2022-10-23T04:19:24.563Z,33.92
2022-10-23T04:21:30.724Z,27.90
2022-10-23T04:23:32.934Z,30.73
2022-10-23T04:25:35.094Z,32.53
2022-10-23T04:27:39.410Z,27.73
2022-10-23T04:31:43.454Z,27.08
2022-10-23T04:33:45.557Z,30.00
2022-10-23T04:36:01.274Z,26.55
2022-10-23T04:38:03.440Z,33.83
2022-10-23T04:40:06.107Z,31.55
2022-10-23T04:42:10.362Z,28.08
2022-10-23T04:44:12.358Z,28.30
2022-10-23T04:46:14.509Z,26.10
2022-10-23T04:48:16.774Z,30.23
2022-10-23T04:50:41.515Z,26.48
2022-10-23T04:53:12.691Z,28.83
2022-10-23T04:55:53.305Z,25.65
2022-10-23T04:58:10.444Z,28.67
2022-10-23T05:00:14.890Z,25.20
2022-10-23T05:02:25.205Z,21.90
2022-10-23T05:04:28.259Z,22.58
2022-10-23T05:06:48.832Z,28.00
2022-10-23T05:08:58.312Z,23.13
2022-10-23T05:11:14.840Z,24.38
2022-10-23T05:13:21.222Z,26.08
2022-10-23T05:15:24.741Z,21.23
2022-10-23T05:17:34.140Z,24.90
2022-10-23T05:19:43.671Z,22.42
2022-10-23T05:21:46.586Z,26.20
2022-10-23T05:23:50.779Z,23.45
2022-10-23T05:25:53.071Z,24.95
2022-10-23T05:27:55.130Z,26.33
2022-10-23T05:29:57.665Z,28.92
2022-10-23T05:32:07.080Z,28.33
2022-10-23T05:34:13.323Z,26.50
2022-10-23T05:36:19.008Z,26.10
2022-10-23T05:38:21.861Z,23.40
2022-10-23T05:40:24.793Z,24.08
2022-10-23T05:42:34.420Z,24.70
2022-10-23T05:44:38.338Z,20.42
2022-10-23T05:47:15.698Z,24.23
2022-10-23T05:49:36.729Z,23.50
2022-10-23T05:52:02.154Z,25.42
2022-10-23T05:54:15.771Z,24.92
2022-10-23T05:56:29.597Z,23.63
2022-10-23T05:58:37.568Z,23.35
2022-10-23T06:00:47.615Z,18.73
2022-10-23T06:05:17.257Z,19.92
2022-10-23T06:07:28.313Z,24.73
2022-10-23T06:09:32.954Z,24.05
2022-10-23T06:11:35.245Z,28.58
2022-10-23T06:13:44.273Z,25.05
2022-10-23T06:15:46.858Z,28.05
2022-10-23T06:18:04.725Z,26.60
2022-10-23T06:20:10.411Z,25.48
2022-10-23T06:22:15.069Z,23.17
2022-10-23T06:24:28.421Z,20.92
2022-10-23T06:26:35.989Z,23.27
2022-10-23T06:28:43.736Z,28.23
2022-10-23T06:30:46.434Z,26.35
2022-10-23T06:32:48.593Z,24.98
2022-10-23T06:34:51.235Z,26.42
2022-10-23T06:36:53.320Z,20.73
2022-10-23T06:39:10.547Z,26.85
2022-10-23T06:41:31.350Z,26.33
2022-10-23T06:43:33.740Z,28.48
2022-10-23T06:45:54.685Z,27.27
2022-10-23T06:48:23.213Z,23.83
2022-10-23T06:50:37.858Z,25.25
2022-10-23T06:52:47.380Z,21.80
2022-10-23T06:54:52.991Z,25.70
2022-10-23T06:57:00.101Z,27.13
2022-10-23T06:59:14.429Z,27.40
2022-10-23T07:01:17.223Z,32.15
2022-10-23T07:03:38.158Z,21.90
2022-10-23T07:05:44.983Z,20.50
2022-10-23T07:07:48.390Z,20.27
2022-10-23T07:09:56.569Z,27.27
2022-10-23T07:12:01.998Z,20.23
2022-10-23T07:14:13.743Z,26.00
2022-10-23T07:16:20.223Z,22.98
2022-10-23T07:18:25.664Z,25.58
2022-10-23T07:21:06.481Z,25.98
2022-10-23T07:23:12.323Z,26.40
2022-10-23T07:25:15.618Z,29.17
2022-10-23T07:27:18.103Z,35.15
2022-10-23T07:29:39.154Z,26.75
2022-10-23T07:31:51.216Z,24.25
2022-10-23T07:34:16.477Z,24.00
2022-10-23T07:36:30.527Z,22.23
2022-10-23T07:38:33.074Z,24.15
2022-10-23T07:40:36.616Z,30.50
2022-10-23T07:42:39.497Z,23.98
2022-10-23T07:44:44.820Z,28.83
2022-10-23T07:46:50.401Z,27.52
2022-10-23T07:48:56.254Z,26.98
2022-10-23T07:51:03.659Z,22.27
2022-10-23T07:53:06.619Z,25.08
2022-10-23T07:55:17.213Z,27.27
2022-10-23T07:57:23.930Z,28.15
2022-10-23T07:59:42.957Z,26.98
2022-10-23T08:01:50.534Z,28.33
2022-10-23T08:03:55.687Z,25.48
2022-10-23T08:05:58.661Z,34.17
2022-10-23T08:08:00.886Z,29.38
2022-10-23T08:12:06.675Z,26.85
2022-10-23T08:14:10.395Z,29.73
2022-10-23T08:16:14.141Z,29.30
2022-10-23T08:18:45.603Z,28.23
2022-10-23T08:20:48.808Z,33.80
2022-10-23T08:22:51.946Z,32.90
2022-10-23T08:24:59.420Z,32.17
2022-10-23T08:27:01.616Z,30.05
2022-10-23T08:29:05.854Z,37.00
2022-10-23T08:31:14.364Z,34.65
2022-10-23T08:33:23.606Z,35.50
2022-10-23T08:35:25.848Z,36.50
2022-10-23T08:37:28.069Z,30.98
2022-10-23T08:39:30.234Z,40.40
2022-10-23T08:41:49.364Z,33.42
2022-10-23T08:43:59.604Z,33.88
2022-10-23T08:46:15.567Z,40.67
2022-10-23T08:48:49.576Z,31.23
2022-10-23T08:51:33.330Z,33.83
2022-10-23T08:54:04.662Z,35.97
2022-10-23T08:56:33.516Z,35.35
2022-10-23T08:58:55.819Z,41.85
2022-10-23T09:00:58.516Z,36.65
2022-10-23T09:03:07.878Z,33.97
2022-10-23T09:05:43.768Z,43.40
2022-10-23T09:08:00.679Z,35.58
2022-10-23T09:10:14.477Z,38.42
2022-10-23T09:12:21.285Z,42.25
2022-10-23T09:14:40.671Z,34.58
2022-10-23T09:16:52.445Z,32.33
2022-10-23T09:18:55.950Z,34.42
2022-10-23T09:20:58.342Z,35.42
2022-10-23T09:23:07.484Z,33.35
2022-10-23T09:25:20.052Z,39.65
2022-10-23T09:29:29.241Z,35.17
2022-10-23T09:31:31.285Z,41.20
2022-10-23T09:33:34.843Z,34.50
2022-10-23T09:35:36.914Z,39.38
2022-10-23T09:37:48.566Z,41.95
2022-10-23T09:40:02.373Z,44.15
2022-10-23T09:42:35.003Z,41.80
2022-10-23T09:44:51.062Z,37.58
2022-10-23T09:47:18.479Z,37.22
2022-10-23T09:49:24.341Z,42.05
2022-10-23T09:51:29.544Z,45.30
2022-10-23T09:53:40.412Z,40.25
2022-10-23T09:55:42.509Z,48.30
2022-10-23T09:57:45.736Z,45.28
2022-10-23T09:59:55.577Z,39.55
2022-10-23T10:02:00.784Z,41.55
2022-10-23T10:04:37.650Z,37.20
2022-10-23T10:08:52.136Z,46.35
2022-10-23T10:11:00.621Z,35.83
2022-10-23T10:13:27.081Z,46.38
2022-10-23T10:15:48.285Z,43.45
2022-10-23T10:18:35.613Z,43.35
2022-10-23T10:21:01.379Z,42.22
2022-10-23T10:23:13.481Z,41.75
2022-10-23T10:25:21.563Z,47.95
2022-10-23T10:27:42.903Z,56.35
2022-10-23T10:30:05.237Z,40.45
2022-10-23T10:32:43.027Z,43.80
2022-10-23T10:35:17.014Z,46.92
2022-10-23T10:37:24.875Z,42.20
2022-10-23T10:39:39.899Z,48.38
2022-10-23T10:41:55.089Z,44.97
2022-10-23T10:44:40.852Z,43.38
2022-10-23T10:47:04.375Z,44.90
2022-10-23T10:49:39.106Z,46.35
2022-10-23T10:52:04.414Z,43.13
2022-10-23T10:54:34.532Z,49.03
2022-10-23T10:56:42.434Z,46.28
2022-10-23T10:58:47.799Z,45.28
2022-10-23T11:00:58.931Z,45.55
2022-10-23T11:03:10.071Z,43.42
2022-10-23T11:05:12.278Z,44.25
2022-10-23T11:07:20.780Z,42.03
2022-10-23T11:09:30.523Z,41.92
2022-10-23T11:11:40.695Z,49.78
2022-10-23T11:13:44.807Z,43.33
2022-10-23T11:15:48.952Z,39.50
2022-10-23T11:17:56.050Z,42.30
2022-10-23T11:20:10.889Z,49.95
2022-10-23T11:22:28.376Z,47.67
2022-10-23T11:24:53.382Z,45.05
2022-10-23T11:27:12.044Z,44.88
2022-10-23T11:29:52.003Z,48.63
2022-10-23T11:32:12.700Z,50.72
2022-10-23T11:34:35.570Z,48.42
2022-10-23T11:36:53.999Z,53.10
2022-10-23T11:39:15.827Z,48.38
2022-10-23T11:41:21.016Z,48.72
2022-10-23T11:43:52.809Z,53.67
2022-10-23T11:45:54.971Z,51.10
2022-10-23T11:48:20.750Z,68.78
2022-10-23T11:50:49.808Z,62.95
2022-10-23T11:53:15.007Z,52.42
2022-10-23T11:55:24.522Z,49.25
2022-10-23T11:57:28.259Z,61.42
2022-10-23T11:59:32.903Z,47.35
2022-10-23T12:01:42.851Z,54.60
2022-10-23T12:03:54.576Z,49.60
2022-10-23T12:06:00.511Z,42.85
2022-10-23T12:08:05.570Z,56.78
2022-10-23T12:10:28.890Z,63.25
2022-10-23T12:12:43.254Z,58.65
2022-10-23T12:14:47.224Z,55.35
2022-10-23T12:16:49.303Z,53.50
2022-10-23T12:18:54.291Z,49.45
2022-10-23T12:21:03.381Z,57.25
2022-10-23T12:23:14.379Z,51.33
2022-10-23T12:25:34.613Z,57.25
2022-10-23T12:27:46.481Z,55.95
2022-10-23T12:29:56.369Z,48.88
2022-10-23T12:32:09.824Z,57.30
2022-10-23T12:34:45.458Z,51.13
2022-10-23T12:37:12.498Z,52.95
2022-10-23T12:39:31.160Z,48.97
2022-10-23T12:41:35.084Z,55.13
2022-10-23T12:43:38.799Z,53.72
2022-10-23T12:45:43.687Z,54.15
2022-10-23T12:47:47.173Z,52.97
2022-10-23T12:49:50.610Z,56.53
2022-10-23T12:52:03.490Z,51.63
2022-10-23T12:54:19.049Z,54.67
2022-10-23T12:56:22.160Z,57.72
2022-10-23T12:58:35.355Z,47.60
2022-10-23T13:00:51.494Z,56.25
2022-10-23T13:03:04.255Z,56.58
2022-10-23T13:07:09.551Z,50.50
2022-10-23T13:09:42.159Z,57.45
2022-10-23T13:12:07.777Z,58.10
2022-10-23T13:14:14.485Z,50.47
2022-10-23T13:16:24.156Z,51.90
2022-10-23T13:18:26.232Z,49.55
2022-10-23T13:20:38.085Z,58.75
2022-10-23T13:22:41.187Z,44.93
2022-10-23T13:24:44.054Z,45.90
2022-10-23T13:26:46.477Z,46.35
2022-10-23T13:31:07.820Z,42.08
2022-10-23T13:33:23.582Z,44.53
2022-10-23T13:35:25.783Z,42.78
